Time;durP1;ratioP1;P1;durP2;ratioP2;P2;SDS_P1;SDS_P2;PMS_P1;PMS_P2;Temp;Humidity;BMP_temperature;BMP_pressure;BME280_temperature;BME280_humidity;BME280_pressure;Samples;Min_cycle;Max_cycle;Signal;HPM_P1;HPM_P2
2023/09/15 00:02:25;;;;;;;4.05;1.70;;;14.70;99.90;;;;;;5006101;28;20053;-33
2023/09/15 00:04:54;;;;;;;3.97;1.52;;;14.60;99.90;;;;;;5009021;28;20050;-34
2023/09/15 00:07:20;;;;;;;2.78;1.40;;;14.60;99.90;;;;;;5009492;28;20419;-34
2023/09/15 00:09:46;;;;;;;4.95;1.90;;;14.60;99.90;;;;;;5002858;28;20503;-34
2023/09/15 00:12:11;;;;;;;4.82;1.67;;;14.50;99.90;;;;;;5008455;28;20072;-33
2023/09/15 00:14:38;;;;;;;5.80;1.90;;;14.50;99.90;;;;;;5008050;28;20050;-33
2023/09/15 00:17:05;;;;;;;4.72;1.60;;;14.50;99.90;;;;;;5008774;28;20422;-34
2023/09/15 00:19:31;;;;;;;3.60;1.75;;;14.40;99.90;;;;;;5006492;28;20054;-34
2023/09/15 00:21:57;;;;;;;6.07;2.15;;;14.30;99.90;;;;;;4990267;28;20058;-32
2023/09/15 00:24:22;;;;;;;5.00;1.77;;;14.30;99.90;;;;;;5006603;28;20065;-33
2023/09/15 00:26:50;;;;;;;4.95;1.63;;;14.30;99.90;;;;;;5004826;28;20054;-34
2023/09/15 00:29:16;;;;;;;4.60;1.73;;;14.30;99.90;;;;;;4990763;28;20054;-33
2023/09/15 00:31:42;;;;;;;4.78;1.88;;;14.30;99.90;;;;;;5008744;28;20427;-34
2023/09/15 00:34:07;;;;;;;4.63;1.45;;;14.30;99.90;;;;;;5007052;28;20050;-33
2023/09/15 00:36:33;;;;;;;5.60;2.00;;;14.30;99.90;;;;;;5008822;28;20050;-34
2023/09/15 00:39:01;;;;;;;5.95;2.00;;;14.20;99.90;;;;;;5009482;28;20053;-34
2023/09/15 00:41:26;;;;;;;7.20;1.70;;;14.20;99.90;;;;;;5008455;28;20530;-33
2023/09/15 00:43:52;;;;;;;5.07;1.52;;;14.20;99.90;;;;;;5006295;28;20050;-34
2023/09/15 00:46:19;;;;;;;3.17;1.63;;;14.20;99.90;;;;;;4987145;28;20049;-33
2023/09/15 00:48:45;;;;;;;3.67;1.80;;;14.10;99.90;;;;;;5003671;28;20099;-33
2023/09/15 00:51:11;;;;;;;5.68;1.77;;;14.10;99.90;;;;;;5009561;28;20050;-34
2023/09/15 00:53:39;;;;;;;6.60;1.85;;;14.00;99.90;;;;;;5001790;28;20058;-33
2023/09/15 00:56:06;;;;;;;5.00;1.70;;;14.10;99.90;;;;;;5008852;28;20097;-34
2023/09/15 00:58:31;;;;;;;8.23;1.90;;;14.00;99.90;;;;;;5005100;28;20054;-32
2023/09/15 01:00:59;;;;;;;5.28;1.83;;;14.00;99.90;;;;;;5007064;28;20049;-34
2023/09/15 01:03:26;;;;;;;3.88;2.10;;;14.00;99.90;;;;;;5004669;28;20076;-34
2023/09/15 01:05:52;;;;;;;6.35;2.38;;;13.90;99.90;;;;;;5007829;28;20149;-33
2023/09/15 01:08:17;;;;;;;4.68;2.00;;;13.90;99.90;;;;;;5003693;28;20136;-34
2023/09/15 01:10:43;;;;;;;4.63;2.00;;;13.90;99.90;;;;;;5006710;28;20412;-34
2023/09/15 01:13:09;;;;;;;4.70;1.95;;;13.90;99.90;;;;;;5006844;28;20133;-34
2023/09/15 01:15:34;;;;;;;5.68;2.20;;;13.80;99.90;;;;;;5008217;28;20050;-34
2023/09/15 01:18:21;;;;;;;4.35;1.70;;;13.80;99.90;;;;;;5006022;28;20133;-34
2023/09/15 01:21:07;;;;;;;5.50;1.80;;;13.80;99.90;;;;;;5007918;28;20474;-34
2023/09/15 01:23:33;;;;;;;4.80;2.00;;;13.80;99.90;;;;;;5006952;28;20050;-34
2023/09/15 01:26:20;;;;;;;4.60;1.73;;;13.70;99.90;;;;;;5004749;28;20061;-34
2023/09/15 01:29:19;;;;;;;7.30;1.83;;;13.70;99.90;;;;;;5003473;28;20499;-33
2023/09/15 01:31:47;;;;;;;5.97;1.98;;;13.70;99.90;;;;;;5005416;28;20551;-34
2023/09/15 01:34:16;;;;;;;7.28;2.05;;;13.70;99.90;;;;;;5011481;28;20075;-34
2023/09/15 01:36:44;;;;;;;6.50;2.55;;;13.60;99.90;;;;;;5010100;28;20057;-34
2023/09/15 01:39:10;;;;;;;4.97;1.70;;;13.60;99.90;;;;;;5009343;28;20054;-34
2023/09/15 01:41:35;;;;;;;5.25;1.80;;;13.60;99.90;;;;;;5009583;28;20081;-33
2023/09/15 01:44:01;;;;;;;5.07;2.00;;;13.50;99.90;;;;;;5010784;28;20058;-34
2023/09/15 01:46:27;;;;;;;3.15;1.60;;;13.50;99.90;;;;;;5015314;28;20472;-34
2023/09/15 01:48:58;;;;;;;4.47;1.90;;;13.50;99.90;;;;;;5011121;28;20458;-34
2023/09/15 01:51:25;;;;;;;4.25;1.80;;;13.50;99.90;;;;;;5010867;28;20110;-34
2023/09/15 01:53:52;;;;;;;4.65;2.00;;;13.40;99.90;;;;;;5011704;28;20128;-34
2023/09/15 01:56:18;;;;;;;4.82;1.67;;;13.40;99.90;;;;;;5006188;28;20089;-33
2023/09/15 01:58:45;;;;;;;4.20;1.73;;;13.40;99.90;;;;;;5011933;28;20199;-34
2023/09/15 02:01:11;;;;;;;4.72;1.75;;;13.40;99.90;;;;;;5010428;28;20123;-34
2023/09/15 02:03:37;;;;;;;7.45;2.03;;;13.40;99.90;;;;;;5007479;28;20097;-34
2023/09/15 02:06:03;;;;;;;5.47;2.40;;;13.30;99.90;;;;;;5012133;28;20049;-33
2023/09/15 02:08:28;;;;;;;4.40;2.13;;;13.30;99.90;;;;;;5011721;28;20077;-34
2023/09/15 02:10:54;;;;;;;4.50;2.20;;;13.30;99.90;;;;;;5008710;28;20050;-33
2023/09/15 02:13:20;;;;;;;5.93;2.40;;;13.30;99.90;;;;;;5007039;28;20046;-34
2023/09/15 02:15:45;;;;;;;4.00;1.83;;;13.30;99.90;;;;;;5009619;28;20503;-34
2023/09/15 02:18:11;;;;;;;4.70;2.17;;;13.20;99.90;;;;;;5007840;28;20411;-34
2023/09/15 02:20:37;;;;;;;4.90;1.80;;;13.20;99.90;;;;;;5006244;28;20495;-33
2023/09/15 02:23:03;;;;;;;6.82;2.13;;;13.10;99.90;;;;;;5009705;28;20061;-34
2023/09/15 02:25:34;;;;;;;4.65;2.35;;;13.10;99.90;;;;;;5010490;28;20522;-34
2023/09/15 02:27:59;;;;;;;5.95;2.20;;;13.10;99.90;;;;;;5008803;28;20052;-34
2023/09/15 02:30:25;;;;;;;4.00;1.95;;;13.10;99.90;;;;;;5008779;28;20136;-34
2023/09/15 02:32:51;;;;;;;5.43;2.40;;;13.00;99.90;;;;;;5007051;28;20137;-33
2023/09/15 02:35:17;;;;;;;4.18;2.25;;;13.00;99.90;;;;;;5008878;28;20056;-34
2023/09/15 02:37:43;;;;;;;5.68;2.60;;;13.00;99.90;;;;;;5008781;28;20158;-34
2023/09/15 02:40:09;;;;;;;3.88;1.92;;;13.00;99.90;;;;;;5010290;28;20136;-34
2023/09/15 02:42:35;;;;;;;6.90;2.50;;;12.90;99.90;;;;;;5004204;28;20046;-33
2023/09/15 02:45:01;;;;;;;5.22;2.35;;;12.90;99.90;;;;;;5009261;28;20082;-34
2023/09/15 02:47:30;;;;;;;4.22;2.10;;;12.90;99.90;;;;;;5005378;28;20042;-34
2023/09/15 02:49:55;;;;;;;4.85;1.95;;;12.90;99.90;;;;;;5006886;28;20092;-40
2023/09/15 02:52:21;;;;;;;5.15;1.95;;;12.90;99.90;;;;;;5007767;28;20050;-34
2023/09/15 02:54:50;;;;;;;6.35;2.33;;;12.90;99.90;;;;;;5006234;28;20060;-34
2023/09/15 02:57:15;;;;;;;5.60;2.40;;;12.90;99.90;;;;;;4989168;28;20056;-34
2023/09/15 02:59:41;;;;;;;5.78;2.60;;;12.80;99.90;;;;;;5007835;28;20061;-34
2023/09/15 03:02:12;;;;;;;6.05;2.45;;;12.80;99.90;;;;;;5006338;28;20046;-34
2023/09/15 03:04:39;;;;;;;4.95;2.13;;;12.80;99.90;;;;;;5005503;28;20112;-33
2023/09/15 03:07:06;;;;;;;6.13;2.45;;;12.80;99.90;;;;;;5005751;28;20060;-32
2023/09/15 03:09:32;;;;;;;5.53;1.80;;;12.70;99.90;;;;;;5008155;28;20511;-34
2023/09/15 03:11:58;;;;;;;5.20;2.58;;;12.70;99.90;;;;;;4990547;28;20046;-34
2023/09/15 03:14:24;;;;;;;4.60;1.98;;;12.70;99.90;;;;;;4991823;28;20046;-34
2023/09/15 03:16:49;;;;;;;4.45;1.67;;;12.70;99.90;;;;;;5006251;28;20516;-34
2023/09/15 03:19:15;;;;;;;4.15;2.28;;;12.60;99.90;;;;;;5009520;28;20145;-34
2023/09/15 03:21:40;;;;;;;3.83;2.25;;;12.60;99.90;;;;;;5007475;28;20053;-34
2023/09/15 03:24:07;;;;;;;3.55;1.85;;;12.60;99.90;;;;;;5011061;28;20053;-34
2023/09/15 03:26:35;;;;;;;7.93;2.20;;;12.50;99.90;;;;;;5001256;28;20478;-34
2023/09/15 03:29:01;;;;;;;6.43;2.45;;;12.50;99.90;;;;;;5002579;28;20062;-34
2023/09/15 03:31:26;;;;;;;6.13;2.20;;;12.50;99.90;;;;;;5008689;28;20234;-34
2023/09/15 03:33:52;;;;;;;6.00;2.28;;;12.50;99.90;;;;;;5008876;28;20054;-34
2023/09/15 03:36:17;;;;;;;5.38;2.22;;;12.50;99.90;;;;;;5009165;28;20053;-34
2023/09/15 03:38:43;;;;;;;4.15;2.25;;;12.50;99.90;;;;;;5007737;28;20099;-34
2023/09/15 03:41:09;;;;;;;6.43;2.00;;;12.50;99.90;;;;;;5010394;28;20050;-34
2023/09/15 03:43:34;;;;;;;4.25;2.05;;;12.40;99.90;;;;;;5004730;28;20050;-34
2023/09/15 03:46:00;;;;;;;4.57;1.85;;;12.40;99.90;;;;;;5006494;28;20137;-34
2023/09/15 03:48:26;;;;;;;4.47;2.13;;;12.40;99.90;;;;;;5009936;28;20097;-34
2023/09/15 03:50:52;;;;;;;6.18;2.22;;;12.40;99.90;;;;;;5009346;28;20050;-34
2023/09/15 03:53:18;;;;;;;4.25;2.20;;;12.40;99.90;;;;;;5008636;28;20058;-34
2023/09/15 03:55:43;;;;;;;5.25;2.00;;;12.40;99.90;;;;;;5010195;28;20056;-33
2023/09/15 03:58:09;;;;;;;5.15;2.30;;;12.30;99.90;;;;;;5005935;28;20058;-34
2023/09/15 04:00:35;;;;;;;5.13;2.40;;;12.30;99.90;;;;;;5001543;28;20050;-34
2023/09/15 04:03:03;;;;;;;4.93;2.20;;;12.30;99.90;;;;;;5008861;28;20050;-34
2023/09/15 04:05:30;;;;;;;4.10;1.77;;;12.20;99.90;;;;;;5006722;28;20038;-34
2023/09/15 04:07:56;;;;;;;4.63;2.30;;;12.20;99.90;;;;;;5008523;28;20073;-34
2023/09/15 04:10:22;;;;;;;5.70;2.28;;;12.20;99.90;;;;;;5009515;28;20124;-34
2023/09/15 04:12:48;;;;;;;6.20;2.60;;;12.20;99.90;;;;;;5005952;28;20115;-34
2023/09/15 04:15:15;;;;;;;6.25;2.03;;;12.20;99.90;;;;;;5007547;28;20466;-34
2023/09/15 04:17:44;;;;;;;4.45;2.00;;;12.20;99.90;;;;;;5008016;28;20502;-34
2023/09/15 04:20:10;;;;;;;7.75;2.42;;;12.10;99.90;;;;;;5008662;28;20506;-34
2023/09/15 04:22:37;;;;;;;3.92;2.17;;;12.10;99.90;;;;;;4991515;28;20100;-34
2023/09/15 04:25:04;;;;;;;5.32;2.10;;;12.10;99.90;;;;;;5006743;28;20578;-34
2023/09/15 04:27:32;;;;;;;5.47;2.50;;;12.10;99.90;;;;;;5006074;28;20060;-33
2023/09/15 04:29:58;;;;;;;6.85;2.50;;;12.10;99.90;;;;;;5006029;28;20141;-34
2023/09/15 04:32:24;;;;;;;5.28;2.60;;;12.00;99.90;;;;;;5005812;28;20062;-34
2023/09/15 04:34:50;;;;;;;4.22;2.38;;;12.00;99.90;;;;;;5007562;28;20054;-34
2023/09/15 04:37:17;;;;;;;4.43;2.58;;;12.00;99.90;;;;;;5005316;28;20057;-33
2023/09/15 04:39:43;;;;;;;7.57;2.65;;;12.00;99.90;;;;;;5007681;28;20053;-34
2023/09/15 04:42:12;;;;;;;5.47;2.45;;;11.90;99.90;;;;;;5006273;28;20435;-34
2023/09/15 04:44:38;;;;;;;4.72;2.20;;;11.90;99.90;;;;;;5008992;28;20050;-34
2023/09/15 04:47:04;;;;;;;6.47;2.30;;;11.90;99.90;;;;;;5004936;28;20080;-33
2023/09/15 04:49:29;;;;;;;6.03;2.42;;;11.90;99.90;;;;;;5009611;28;20566;-34
2023/09/15 04:51:55;;;;;;;5.47;2.42;;;11.90;99.90;;;;;;5005202;28;20054;-34
2023/09/15 04:54:21;;;;;;;4.18;2.08;;;11.90;99.90;;;;;;5005211;28;20053;-34
2023/09/15 04:56:46;;;;;;;7.78;2.17;;;11.90;99.90;;;;;;4986663;28;20058;-33
2023/09/15 04:59:19;;;;;;;7.60;2.72;;;11.90;99.90;;;;;;5006106;28;20116;-34
2023/09/15 05:01:46;;;;;;;;;;;11.80;99.90;;;;;;5008379;28;20049;-33
2023/09/15 05:04:14;;;;;;;5.18;2.33;;;11.80;99.90;;;;;;5005735;28;19917;-34
2023/09/15 05:06:40;;;;;;;7.28;2.05;;;11.80;99.90;;;;;;4989965;28;20148;-34
2023/09/15 05:09:08;;;;;;;4.82;2.63;;;11.80;99.90;;;;;;5007033;28;20042;-34
2023/09/15 05:11:35;;;;;;;5.05;2.75;;;11.70;99.90;;;;;;5007508;28;20143;-33
2023/09/15 05:14:01;;;;;;;5.93;2.38;;;11.70;99.90;;;;;;5007568;28;20450;-34
2023/09/15 05:16:27;;;;;;;5.68;2.63;;;11.70;99.90;;;;;;5006900;28;20050;-33
2023/09/15 05:18:52;;;;;;;5.32;2.50;;;11.70;99.90;;;;;;5006827;28;20073;-33
2023/09/15 05:21:18;;;;;;;5.32;2.42;;;11.70;99.90;;;;;;4992373;28;20490;-34
2023/09/15 05:23:44;;;;;;;7.47;2.53;;;11.70;99.90;;;;;;5002645;28;20054;-33
2023/09/15 05:26:10;;;;;;;5.40;2.53;;;11.70;99.90;;;;;;5006862;28;20053;-33
2023/09/15 05:28:35;;;;;;;4.53;2.70;;;11.70;99.90;;;;;;5004349;28;20081;-34
2023/09/15 05:31:01;;;;;;;4.78;2.45;;;11.70;99.90;;;;;;5001741;28;20062;-34
2023/09/15 05:33:27;;;;;;;6.18;2.60;;;11.70;99.90;;;;;;5005026;28;20617;-34
2023/09/15 05:35:56;;;;;;;4.72;2.55;;;11.70;99.90;;;;;;5005404;28;20085;-33
2023/09/15 05:38:23;;;;;;;4.43;2.20;;;11.70;99.90;;;;;;5003820;28;20443;-34
2023/09/15 05:40:49;;;;;;;4.40;2.28;;;11.70;99.90;;;;;;5004682;28;20053;-33
2023/09/15 05:43:18;;;;;;;3.65;2.22;;;11.80;99.90;;;;;;5006658;28;20077;-33
2023/09/15 05:45:45;;;;;;;5.85;2.40;;;11.70;99.90;;;;;;5000843;28;20551;-33
2023/09/15 05:48:16;;;;;;;4.15;2.42;;;11.70;99.90;;;;;;5004442;28;20427;-34
2023/09/15 05:50:41;;;;;;;4.28;2.80;;;11.70;99.90;;;;;;5006025;28;20082;-34
2023/09/15 05:53:07;;;;;;;4.93;2.50;;;11.80;99.90;;;;;;5008538;28;20074;-34
2023/09/15 05:55:33;;;;;;;5.32;2.88;;;11.80;99.90;;;;;;5007471;28;20525;-34
2023/09/15 05:57:58;;;;;;;4.93;2.90;;;11.80;99.90;;;;;;5002607;28;20100;-34
2023/09/15 06:00:24;;;;;;;7.32;2.65;;;11.80;99.90;;;;;;5004912;28;20056;-34
2023/09/15 06:02:50;;;;;;;5.25;2.67;;;11.80;99.90;;;;;;5005839;28;20129;-34
2023/09/15 06:05:19;;;;;;;4.20;2.50;;;11.80;99.90;;;;;;5004535;28;20138;-34
2023/09/15 06:07:54;;;;;;;6.15;2.28;;;11.80;99.90;;;;;;5002542;28;20034;-33
2023/09/15 06:10:20;;;;;;;5.78;2.75;;;11.80;99.90;;;;;;5003445;28;20053;-33
2023/09/15 06:12:49;;;;;;;7.43;2.60;;;11.80;99.90;;;;;;5000850;28;20559;-34
2023/09/15 06:15:15;;;;;;;4.75;2.47;;;11.90;99.90;;;;;;5004228;28;21339;-34
2023/09/15 06:17:40;;;;;;;4.63;2.40;;;11.90;99.90;;;;;;5005526;28;20052;-33
2023/09/15 06:20:06;;;;;;;6.72;2.67;;;11.90;99.90;;;;;;5008471;28;20462;-34
2023/09/15 06:22:33;;;;;;;5.93;3.28;;;12.00;99.90;;;;;;5008404;28;20503;-34
2023/09/15 06:24:59;;;;;;;5.97;2.55;;;12.00;99.90;;;;;;5006891;28;20088;-34
2023/09/15 06:27:24;;;;;;;7.60;2.42;;;12.00;99.90;;;;;;5005864;28;20068;-33
2023/09/15 06:29:52;;;;;;;6.40;2.70;;;12.00;99.90;;;;;;4985109;28;20060;-34
2023/09/15 06:32:18;;;;;;;6.55;2.85;;;12.00;99.90;;;;;;5006930;28;20081;-34
2023/09/15 06:34:44;;;;;;;6.47;2.45;;;12.10;99.90;;;;;;5013813;28;20103;-34
2023/09/15 06:37:10;;;;;;;8.05;2.60;;;12.10;99.90;;;;;;5004934;28;20141;-34
2023/09/15 06:39:36;;;;;;;5.15;2.53;;;12.20;99.90;;;;;;5011071;28;20132;-34
2023/09/15 06:42:08;;;;;;;7.90;3.25;;;12.20;99.90;;;;;;5008065;28;20057;-41
2023/09/15 06:44:34;;;;;;;6.57;3.15;;;12.30;99.90;;;;;;5007576;28;20045;-34
2023/09/15 06:47:00;;;;;;;5.47;2.17;;;12.30;99.90;;;;;;5005965;28;20069;-34
2023/09/15 06:49:26;;;;;;;7.28;2.28;;;12.40;99.90;;;;;;5008146;28;20515;-34
2023/09/15 06:51:53;;;;;;;7.20;2.28;;;12.40;99.90;;;;;;4990699;28;20140;-34
2023/09/15 06:54:19;;;;;;;4.05;2.42;;;12.50;99.90;;;;;;5001131;28;20495;-34
2023/09/15 06:56:44;;;;;;;3.03;1.80;;;12.50;99.90;;;;;;5007156;28;20115;-34
2023/09/15 06:59:10;;;;;;;5.80;2.63;;;12.60;99.90;;;;;;5006123;28;20496;-34
2023/09/15 07:01:35;;;;;;;4.72;2.67;;;12.60;99.90;;;;;;5007680;28;20046;-33
2023/09/15 07:04:01;;;;;;;6.95;2.58;;;12.70;99.90;;;;;;5006431;28;20046;-34
2023/09/15 07:06:27;;;;;;;4.38;2.05;;;12.70;99.90;;;;;;5010468;28;20050;-33
2023/09/15 07:08:53;;;;;;;9.05;3.05;;;12.80;99.90;;;;;;5006713;28;20057;-33
2023/09/15 07:11:19;;;;;;;8.15;2.83;;;12.90;99.90;;;;;;5009307;28;20085;-34
2023/09/15 07:13:44;;;;;;;5.32;2.33;;;12.90;99.90;;;;;;5009354;28;20503;-34
2023/09/15 07:16:10;;;;;;;6.88;2.92;;;13.00;99.90;;;;;;5006681;28;20482;-33
2023/09/15 07:18:37;;;;;;;6.70;2.10;;;13.00;99.90;;;;;;5009108;28;20054;-34
2023/09/15 07:21:02;;;;;;;4.90;2.50;;;13.10;99.90;;;;;;5005631;28;20578;-34
2023/09/15 07:23:28;;;;;;;6.68;2.15;;;13.20;99.90;;;;;;5006649;28;20041;-34
2023/09/15 07:25:54;;;;;;;7.68;2.40;;;13.30;99.90;;;;;;5006175;28;20045;-33
2023/09/15 07:28:20;;;;;;;6.45;2.10;;;13.40;99.90;;;;;;4986033;28;20103;-34
2023/09/15 07:30:45;;;;;;;3.30;1.83;;;13.40;99.90;;;;;;5011025;28;20080;-34
2023/09/15 07:33:11;;;;;;;6.45;2.20;;;13.50;99.90;;;;;;5006732;28;20069;-33
2023/09/15 07:35:37;;;;;;;4.72;2.13;;;13.60;99.90;;;;;;5008046;28;20099;-34
2023/09/15 07:38:03;;;;;;;18.52;4.70;;;13.70;99.90;;;;;;5004872;28;20083;-33
2023/09/15 07:40:29;;;;;;;4.28;2.20;;;13.80;99.90;;;;;;5008910;28;20053;-34
2023/09/15 07:42:55;;;;;;;6.72;2.20;;;13.90;99.90;;;;;;5006625;28;20392;-34
2023/09/15 07:45:21;;;;;;;5.05;2.70;;;13.90;99.90;;;;;;5005598;28;20473;-34
2023/09/15 07:47:47;;;;;;;4.47;2.08;;;14.00;99.90;;;;;;5007262;28;20103;-33
2023/09/15 07:50:16;;;;;;;5.82;3.08;;;14.10;99.90;;;;;;4997808;28;20699;-34
2023/09/15 07:52:43;;;;;;;6.55;2.30;;;14.10;99.90;;;;;;4998992;28;20065;-34
2023/09/15 07:55:09;;;;;;;4.18;2.15;;;14.20;99.90;;;;;;5004530;28;20132;-33
2023/09/15 07:57:36;;;;;;;5.38;1.92;;;14.30;99.90;;;;;;5007442;28;20157;-33
2023/09/15 08:00:02;;;;;;;7.18;2.15;;;14.40;99.90;;;;;;5006064;28;20054;-34
2023/09/15 08:02:27;;;;;;;4.75;1.75;;;14.50;99.90;;;;;;4988518;28;20677;-34
2023/09/15 08:04:53;;;;;;;5.45;2.03;;;14.60;99.90;;;;;;5003857;28;20053;-34
2023/09/15 08:07:19;;;;;;;5.32;2.17;;;14.70;99.90;;;;;;5005404;28;20103;-34
2023/09/15 08:09:45;;;;;;;5.57;1.83;;;14.80;99.90;;;;;;5009230;28;20424;-34
2023/09/15 08:12:11;;;;;;;6.43;1.90;;;14.90;99.90;;;;;;5004454;28;20045;-34
2023/09/15 08:14:37;;;;;;;5.60;1.83;;;15.10;99.90;;;;;;5003941;28;20042;-33
2023/09/15 08:17:03;;;;;;;6.22;2.10;;;15.20;99.90;;;;;;5003770;28;20058;-34
2023/09/15 08:19:29;;;;;;;6.20;2.20;;;15.30;99.90;;;;;;5004335;28;20103;-34
2023/09/15 08:21:54;;;;;;;4.93;2.20;;;15.40;99.90;;;;;;5011008;28;20089;-34
2023/09/15 08:24:20;;;;;;;3.72;1.90;;;15.50;99.90;;;;;;5009057;28;20463;-34
2023/09/15 08:26:46;;;;;;;4.65;1.85;;;15.60;99.90;;;;;;5004629;28;20061;-34
2023/09/15 08:29:12;;;;;;;6.70;1.85;;;15.70;99.90;;;;;;5007410;28;20411;-34
2023/09/15 08:31:39;;;;;;;9.73;2.25;;;15.80;99.90;;;;;;5006684;28;20053;-34
2023/09/15 08:34:05;;;;;;;7.65;2.30;;;15.90;99.90;;;;;;4984867;28;20047;-34
2023/09/15 08:36:30;;;;;;;4.63;1.77;;;15.90;99.90;;;;;;5008036;28;20060;-34
2023/09/15 08:38:56;;;;;;;4.50;1.52;;;16.10;99.90;;;;;;5007967;28;20193;-33
2023/09/15 08:41:35;;;;;;;6.07;2.08;;;16.20;99.90;;;;;;5005622;28;20428;-34
2023/09/15 08:44:02;;;;;;;5.15;1.63;;;16.30;99.90;;;;;;5008533;28;20108;-34
2023/09/15 08:46:30;;;;;;;5.80;1.90;;;16.40;99.90;;;;;;5006600;28;20050;-34
2023/09/15 08:48:57;;;;;;;5.45;1.95;;;16.50;99.90;;;;;;4992732;28;20496;-34
2023/09/15 08:51:25;;;;;;;3.58;1.38;;;16.70;99.90;;;;;;5005308;28;20103;-34
2023/09/15 08:53:52;;;;;;;4.38;1.80;;;16.80;99.90;;;;;;5004850;28;20136;-34
2023/09/15 08:56:18;;;;;;;5.03;1.63;;;16.90;99.90;;;;;;5006970;28;20415;-34
2023/09/15 08:58:45;;;;;;;5.65;1.60;;;16.90;99.90;;;;;;5008898;28;20049;-34
2023/09/15 09:01:14;;;;;;;5.53;1.70;;;17.00;99.90;;;;;;5004298;28;20562;-33
2023/09/15 09:03:40;;;;;;;3.20;1.27;;;17.10;99.90;;;;;;5007117;28;20555;-34
2023/09/15 09:06:12;;;;;;;3.38;1.33;;;17.20;99.90;;;;;;5007501;28;20096;-34
2023/09/15 09:08:41;;;;;;;4.20;1.20;;;17.30;99.90;;;;;;5006123;28;20127;-33
2023/09/15 09:11:08;;;;;;;5.43;1.05;;;17.40;99.90;;;;;;5008173;28;20061;-34
2023/09/15 09:13:34;;;;;;;3.40;1.05;;;17.50;99.90;;;;;;5006026;28;20727;-34
2023/09/15 09:16:02;;;;;;;2.80;1.00;;;17.60;99.90;;;;;;5006075;28;20134;-35
2023/09/15 09:18:28;;;;;;;3.92;1.52;;;17.70;99.90;;;;;;5004896;28;20092;-34
2023/09/15 09:20:53;;;;;;;4.28;1.55;;;17.80;99.90;;;;;;5008004;28;20531;-34
2023/09/15 09:23:20;;;;;;;4.35;1.30;;;17.90;99.90;;;;;;5003119;28;20045;-34
2023/09/15 09:25:47;;;;;;;4.25;1.60;;;18.00;99.90;;;;;;5008672;28;20050;-34
2023/09/15 09:28:13;;;;;;;3.70;1.25;;;18.10;99.90;;;;;;5007487;28;20046;-34
2023/09/15 09:30:39;;;;;;;2.67;1.10;;;18.20;99.90;;;;;;5004449;28;20814;-34
2023/09/15 09:33:05;;;;;;;3.45;1.20;;;18.20;99.90;;;;;;5005160;28;20061;-34
2023/09/15 09:35:31;;;;;;;5.13;1.02;;;18.30;99.90;;;;;;4991742;28;20049;-34
2023/09/15 09:37:59;;;;;;;3.28;1.00;;;18.30;99.90;;;;;;5010736;28;20050;-34
2023/09/15 09:40:26;;;;;;;3.58;1.05;;;18.40;99.90;;;;;;5003280;28;20054;-34
2023/09/15 09:42:53;;;;;;;4.45;1.40;;;18.50;99.90;;;;;;5005263;28;20058;-33
2023/09/15 09:45:30;;;;;;;5.22;1.45;;;18.60;99.90;;;;;;5004790;28;20050;-34
2023/09/15 09:47:58;;;;;;;2.55;1.17;;;18.70;99.90;;;;;;5004142;28;20780;-33
2023/09/15 09:50:26;;;;;;;1.75;0.70;;;18.80;99.90;;;;;;5002590;28;20057;-34
2023/09/15 09:52:52;;;;;;;3.63;1.05;;;19.00;99.90;;;;;;5005039;28;20050;-34
2023/09/15 09:55:18;;;;;;;3.03;1.00;;;19.00;99.90;;;;;;5008403;28;20100;-34
2023/09/15 09:57:44;;;;;;;3.90;1.00;;;19.10;99.90;;;;;;5008123;28;20046;-34
2023/09/15 10:00:10;;;;;;;2.70;0.90;;;19.20;99.90;;;;;;5012208;28;20044;-34
2023/09/15 10:02:42;;;;;;;3.60;1.45;;;19.30;99.90;;;;;;5007318;28;20064;-33
2023/09/15 10:05:08;;;;;;;3.47;1.23;;;19.40;99.90;;;;;;5006127;28;20046;-34
2023/09/15 10:07:34;;;;;;;4.78;1.20;;;19.40;99.90;;;;;;5004177;28;20462;-34
2023/09/15 10:10:06;;;;;;;3.13;1.20;;;19.50;99.90;;;;;;5005596;28;20440;-34
2023/09/15 10:12:33;;;;;;;3.63;1.40;;;19.50;99.90;;;;;;5004491;28;20072;-33
2023/09/15 10:14:59;;;;;;;2.85;1.30;;;19.50;99.90;;;;;;5006853;28;20049;-35
2023/09/15 10:17:27;;;;;;;3.35;1.20;;;19.70;99.90;;;;;;5003089;28;20513;-35
2023/09/15 10:19:53;;;;;;;4.82;1.50;;;19.80;99.90;;;;;;5006425;28;20061;-35
2023/09/15 10:22:20;;;;;;;6.13;1.40;;;19.80;99.90;;;;;;5009747;28;20046;-35
2023/09/15 10:24:47;;;;;;;3.40;1.60;;;19.80;99.90;;;;;;5005268;28;20066;-34
2023/09/15 10:27:17;;;;;;;4.07;1.80;;;19.80;99.90;;;;;;5008259;28;20050;-35
2023/09/15 10:29:44;;;;;;;5.50;2.10;;;19.80;99.90;;;;;;4991679;28;20116;-34
2023/09/15 10:32:15;;;;;;;6.18;2.38;;;19.80;99.90;;;;;;5005144;28;20511;-34
2023/09/15 10:34:41;;;;;;;4.85;2.03;;;19.80;99.90;;;;;;5007888;28;20161;-34
2023/09/15 10:37:09;;;;;;;3.92;1.77;;;19.90;99.90;;;;;;5010526;28;20097;-34
2023/09/15 10:39:40;;;;;;;5.47;1.90;;;19.90;99.90;;;;;;4987659;28;20121;-34
2023/09/15 10:42:11;;;;;;;2.50;1.50;;;20.10;99.90;;;;;;5005681;28;20103;-34
2023/09/15 10:44:36;;;;;;;4.15;2.00;;;20.30;99.90;;;;;;5006939;28;20049;-40
2023/09/15 10:47:13;;;;;;;4.53;2.05;;;20.50;99.90;;;;;;5008198;28;20050;-34
2023/09/15 10:49:51;;;;;;;4.63;2.00;;;20.70;99.90;;;;;;5007395;28;20048;-34
2023/09/15 10:52:17;;;;;;;5.00;1.70;;;20.80;99.90;;;;;;5008155;28;20049;-33
2023/09/15 10:54:43;;;;;;;4.97;2.50;;;20.80;99.90;;;;;;5009900;28;20528;-34
2023/09/15 10:57:09;;;;;;;5.43;1.70;;;20.90;99.90;;;;;;5005917;28;20096;-34
2023/09/15 10:59:36;;;;;;;4.40;1.98;;;21.00;99.90;;;;;;5005325;28;20085;-34
2023/09/15 11:02:02;;;;;;;5.78;2.25;;;21.10;99.90;;;;;;5005824;28;20065;-34
2023/09/15 11:04:29;;;;;;;3.35;1.77;;;21.30;99.90;;;;;;5007711;28;20053;-34
2023/09/15 11:06:55;;;;;;;5.13;2.00;;;21.50;99.90;;;;;;5012531;28;20069;-35
2023/09/15 11:09:21;;;;;;;4.78;1.92;;;21.70;99.90;;;;;;5009185;28;20057;-34
2023/09/15 11:11:49;;;;;;;4.53;2.17;;;21.90;99.90;;;;;;5009382;28;20053;-34
2023/09/15 11:14:16;;;;;;;4.18;1.88;;;22.10;99.90;;;;;;5008957;28;20058;-34
2023/09/15 11:16:49;;;;;;;5.43;2.30;;;22.10;99.90;;;;;;5006649;28;20046;-34
2023/09/15 11:19:17;;;;;;;4.43;1.92;;;22.20;99.90;;;;;;4991138;28;20054;-34
2023/09/15 11:21:44;;;;;;;3.83;1.90;;;22.30;99.90;;;;;;5008384;28;20077;-34
2023/09/15 11:24:10;;;;;;;5.38;1.80;;;22.30;99.90;;;;;;4992127;28;20049;-36
2023/09/15 11:26:43;;;;;;;4.97;2.15;;;22.20;99.90;;;;;;5007417;28;20112;-34
2023/09/15 11:29:08;;;;;;;4.20;1.75;;;22.20;99.90;;;;;;5010258;28;20073;-34
2023/09/15 11:31:36;;;;;;;4.95;1.95;;;22.20;99.90;;;;;;5009415;28;20042;-34
2023/09/15 11:34:04;;;;;;;3.10;2.00;;;22.20;99.90;;;;;;4991743;28;20454;-34
2023/09/15 11:36:35;;;;;;;4.35;1.60;;;22.20;99.90;;;;;;4992904;28;20045;-34
2023/09/15 11:39:11;;;;;;;5.53;2.10;;;22.30;99.90;;;;;;5008686;28;20049;-34
2023/09/15 11:41:38;;;;;;;3.72;1.63;;;22.30;99.90;;;;;;5006340;28;20092;-34
2023/09/15 11:44:08;;;;;;;4.18;1.67;;;22.40;99.90;;;;;;5006442;28;20558;-34
2023/09/15 11:46:37;;;;;;;4.57;1.80;;;22.50;99.90;;;;;;5004232;28;20073;-34
2023/09/15 11:49:03;;;;;;;2.67;1.52;;;22.60;99.90;;;;;;5006282;28;20085;-34
2023/09/15 11:51:30;;;;;;;3.88;1.52;;;22.60;99.90;;;;;;5003313;28;20403;-34
2023/09/15 11:53:59;;;;;;;2.97;1.45;;;22.60;99.90;;;;;;5009115;28;20228;-34
2023/09/15 11:56:28;;;;;;;4.18;1.50;;;22.50;99.90;;;;;;5009693;28;20049;-36
2023/09/15 11:58:54;;;;;;;7.43;1.80;;;22.30;99.90;;;;;;5010623;28;20068;-35
2023/09/15 12:01:21;;;;;;;3.85;1.27;;;22.20;99.90;;;;;;5007772;28;20057;-34
2023/09/15 12:03:51;;;;;;;3.13;1.27;;;22.20;99.90;;;;;;5008878;28;20053;-33
2023/09/15 12:06:19;;;;;;;4.07;1.40;;;22.20;99.90;;;;;;4986297;28;20496;-33
2023/09/15 12:08:47;;;;;;;2.95;1.40;;;22.40;99.90;;;;;;5006209;28;20108;-34
2023/09/15 12:11:14;;;;;;;4.15;1.17;;;22.60;99.90;;;;;;5004088;28;20048;-34
2023/09/15 12:13:40;;;;;;;3.90;1.48;;;22.80;99.90;;;;;;5002807;28;20085;-34
2023/09/15 12:16:06;;;;;;;4.10;1.85;;;22.90;99.90;;;;;;5007183;28;20060;-34
2023/09/15 12:18:36;;;;;;;4.88;1.40;;;23.00;99.90;;;;;;5008081;28;20650;-33
2023/09/15 12:21:04;;;;;;;3.40;1.05;;;23.00;99.90;;;;;;5000909;28;20565;-34
2023/09/15 12:23:30;;;;;;;5.47;1.20;;;23.20;99.90;;;;;;5005659;28;20100;-34
2023/09/15 12:25:55;;;;;;;2.38;1.20;;;23.30;99.90;;;;;;5006043;28;20053;-35
2023/09/15 12:28:22;;;;;;;5.22;1.23;;;23.50;99.90;;;;;;5005458;28;20439;-34
2023/09/15 12:30:50;;;;;;;3.88;1.30;;;23.60;99.90;;;;;;5007901;28;20164;-34
2023/09/15 12:33:19;;;;;;;3.70;1.55;;;23.80;99.90;;;;;;5007260;28;20488;-35
2023/09/15 12:35:48;;;;;;;3.58;1.58;;;24.00;99.90;;;;;;5008201;28;20466;-34
2023/09/15 12:38:17;;;;;;;5.72;1.63;;;24.20;99.90;;;;;;4987763;28;20065;-34
2023/09/15 12:40:48;;;;;;;4.18;1.33;;;24.50;99.90;;;;;;5006144;28;20054;-34
2023/09/15 12:43:14;;;;;;;4.28;1.42;;;24.70;99.90;;;;;;5005419;28;20141;-34
2023/09/15 12:45:40;;;;;;;2.95;1.35;;;25.00;99.90;;;;;;5005661;28;20478;-34
2023/09/15 12:48:06;;;;;;;3.72;1.30;;;25.30;99.90;;;;;;5005948;28;20499;-34